sensor_id;sensor_type;location;lat;lon;timestamp;P1;durP1;ratioP1;P2;durP2;ratioP2
17052;SDS011;8643;48.824;11.422;2023-04-25T00:01:23;4.50;;;3.30;;
17052;SDS011;8643;48.824;11.422;2023-04-25T00:03:52;5.13;;;3.73;;
17052;SDS011;8643;48.824;11.422;2023-04-25T00:06:22;7.03;;;3.80;;
17052;SDS011;8643;48.824;11.422;2023-04-25T00:08:53;6.37;;;3.47;;
17052;SDS011;8643;48.824;11.422;2023-04-25T00:11:23;6.93;;;4.00;;
17052;SDS011;8643;48.824;11.422;2023-04-25T00:13:51;5.20;;;3.40;;
17052;SDS011;8643;48.824;11.422;2023-04-25T00:16:20;6.10;;;3.50;;
17052;SDS011;8643;48.824;11.422;2023-04-25T00:18:50;5.37;;;3.87;;
17052;SDS011;8643;48.824;11.422;2023-04-25T00:21:20;5.40;;;3.70;;
17052;SDS011;8643;48.824;11.422;2023-04-25T00:23:50;5.00;;;3.50;;
17052;SDS011;8643;48.824;11.422;2023-04-25T00:26:21;5.67;;;3.43;;
17052;SDS011;8643;48.824;11.422;2023-04-25T00:28:49;4.90;;;3.37;;
17052;SDS011;8643;48.824;11.422;2023-04-25T00:31:18;5.20;;;3.53;;
17052;SDS011;8643;48.824;11.422;2023-04-25T00:33:47;5.33;;;3.50;;
17052;SDS011;8643;48.824;11.422;2023-04-25T00:36:16;4.27;;;3.57;;
17052;SDS011;8643;48.824;11.422;2023-04-25T00:38:44;6.90;;;3.57;;
17052;SDS011;8643;48.824;11.422;2023-04-25T00:41:13;6.87;;;3.80;;
17052;SDS011;8643;48.824;11.422;2023-04-25T00:43:43;5.43;;;3.50;;
17052;SDS011;8643;48.824;11.422;2023-04-25T00:46:13;5.70;;;3.67;;
17052;SDS011;8643;48.824;11.422;2023-04-25T00:48:42;4.80;;;3.37;;
17052;SDS011;8643;48.824;11.422;2023-04-25T00:51:12;5.33;;;3.40;;
17052;SDS011;8643;48.824;11.422;2023-04-25T00:53:46;5.57;;;3.60;;
17052;SDS011;8643;48.824;11.422;2023-04-25T00:56:16;5.63;;;3.30;;
17052;SDS011;8643;48.824;11.422;2023-04-25T00:58:47;6.33;;;3.27;;
17052;SDS011;8643;48.824;11.422;2023-04-25T01:01:20;6.03;;;3.60;;
17052;SDS011;8643;48.824;11.422;2023-04-25T01:03:49;6.53;;;3.73;;
17052;SDS011;8643;48.824;11.422;2023-04-25T01:06:18;4.27;;;3.40;;
17052;SDS011;8643;48.824;11.422;2023-04-25T01:08:47;5.30;;;3.60;;
17052;SDS011;8643;48.824;11.422;2023-04-25T01:11:15;7.23;;;3.43;;
17052;SDS011;8643;48.824;11.422;2023-04-25T01:13:44;6.27;;;3.30;;
17052;SDS011;8643;48.824;11.422;2023-04-25T01:16:14;5.43;;;3.40;;
17052;SDS011;8643;48.824;11.422;2023-04-25T01:18:43;5.47;;;3.17;;
17052;SDS011;8643;48.824;11.422;2023-04-25T01:21:14;5.17;;;3.23;;
17052;SDS011;8643;48.824;11.422;2023-04-25T01:23:43;7.20;;;3.17;;
17052;SDS011;8643;48.824;11.422;2023-04-25T01:26:13;4.90;;;3.30;;
17052;SDS011;8643;48.824;11.422;2023-04-25T01:28:43;6.27;;;3.67;;
17052;SDS011;8643;48.824;11.422;2023-04-25T01:31:12;6.40;;;3.80;;
17052;SDS011;8643;48.824;11.422;2023-04-25T01:33:43;6.53;;;3.80;;
17052;SDS011;8643;48.824;11.422;2023-04-25T01:36:11;5.53;;;3.70;;
17052;SDS011;8643;48.824;11.422;2023-04-25T01:38:42;7.63;;;3.80;;
17052;SDS011;8643;48.824;11.422;2023-04-25T01:41:12;5.33;;;3.70;;
17052;SDS011;8643;48.824;11.422;2023-04-25T01:43:41;5.67;;;3.30;;
17052;SDS011;8643;48.824;11.422;2023-04-25T01:46:10;6.83;;;4.17;;
17052;SDS011;8643;48.824;11.422;2023-04-25T01:48:40;6.23;;;3.70;;
17052;SDS011;8643;48.824;11.422;2023-04-25T01:51:08;6.77;;;3.60;;
17052;SDS011;8643;48.824;11.422;2023-04-25T01:53:39;8.57;;;4.23;;
17052;SDS011;8643;48.824;11.422;2023-04-25T01:56:08;6.07;;;3.90;;
17052;SDS011;8643;48.824;11.422;2023-04-25T01:58:38;5.27;;;3.40;;
17052;SDS011;8643;48.824;11.422;2023-04-25T02:01:27;6.10;;;3.33;;
17052;SDS011;8643;48.824;11.422;2023-04-25T02:04:12;6.47;;;3.20;;
17052;SDS011;8643;48.824;11.422;2023-04-25T02:06:41;4.97;;;3.40;;
17052;SDS011;8643;48.824;11.422;2023-04-25T02:09:11;5.90;;;3.40;;
17052;SDS011;8643;48.824;11.422;2023-04-25T02:11:46;5.70;;;3.83;;
17052;SDS011;8643;48.824;11.422;2023-04-25T02:14:37;4.57;;;3.27;;
17052;SDS011;8643;48.824;11.422;2023-04-25T02:17:14;7.13;;;3.87;;
17052;SDS011;8643;48.824;11.422;2023-04-25T02:19:43;8.77;;;4.17;;
17052;SDS011;8643;48.824;11.422;2023-04-25T02:22:12;5.90;;;3.40;;
17052;SDS011;8643;48.824;11.422;2023-04-25T02:24:42;7.73;;;4.20;;
17052;SDS011;8643;48.824;11.422;2023-04-25T02:27:11;5.43;;;3.50;;
17052;SDS011;8643;48.824;11.422;2023-04-25T02:29:40;5.40;;;3.70;;
17052;SDS011;8643;48.824;11.422;2023-04-25T02:32:10;5.80;;;4.00;;
17052;SDS011;8643;48.824;11.422;2023-04-25T02:34:39;6.60;;;4.00;;
17052;SDS011;8643;48.824;11.422;2023-04-25T02:37:08;8.23;;;4.33;;
17052;SDS011;8643;48.824;11.422;2023-04-25T02:39:36;8.10;;;4.53;;
17052;SDS011;8643;48.824;11.422;2023-04-25T02:42:06;5.63;;;4.00;;
17052;SDS011;8643;48.824;11.422;2023-04-25T02:44:35;7.87;;;4.53;;
17052;SDS011;8643;48.824;11.422;2023-04-25T02:47:04;5.53;;;4.03;;
17052;SDS011;8643;48.824;11.422;2023-04-25T02:49:33;5.27;;;4.10;;
17052;SDS011;8643;48.824;11.422;2023-04-25T02:52:01;5.37;;;3.97;;
17052;SDS011;8643;48.824;11.422;2023-04-25T02:54:30;6.20;;;4.30;;
17052;SDS011;8643;48.824;11.422;2023-04-25T02:56:59;9.77;;;4.43;;
17052;SDS011;8643;48.824;11.422;2023-04-25T02:59:35;8.43;;;4.80;;
17052;SDS011;8643;48.824;11.422;2023-04-25T03:02:04;9.40;;;4.70;;
17052;SDS011;8643;48.824;11.422;2023-04-25T03:04:33;7.00;;;4.37;;
17052;SDS011;8643;48.824;11.422;2023-04-25T03:07:02;6.33;;;4.07;;
17052;SDS011;8643;48.824;11.422;2023-04-25T03:09:31;9.47;;;4.10;;
17052;SDS011;8643;48.824;11.422;2023-04-25T03:12:00;6.07;;;4.27;;
17052;SDS011;8643;48.824;11.422;2023-04-25T03:14:28;7.27;;;4.40;;
17052;SDS011;8643;48.824;11.422;2023-04-25T03:16:59;8.60;;;4.80;;
17052;SDS011;8643;48.824;11.422;2023-04-25T03:19:28;6.37;;;4.30;;
17052;SDS011;8643;48.824;11.422;2023-04-25T03:21:56;8.90;;;4.43;;
17052;SDS011;8643;48.824;11.422;2023-04-25T03:24:25;6.20;;;4.50;;
17052;SDS011;8643;48.824;11.422;2023-04-25T03:26:54;6.73;;;4.70;;
17052;SDS011;8643;48.824;11.422;2023-04-25T03:29:23;6.53;;;4.67;;
17052;SDS011;8643;48.824;11.422;2023-04-25T03:31:54;10.33;;;4.53;;
17052;SDS011;8643;48.824;11.422;2023-04-25T03:34:25;6.17;;;3.90;;
17052;SDS011;8643;48.824;11.422;2023-04-25T03:36:53;7.60;;;4.70;;
17052;SDS011;8643;48.824;11.422;2023-04-25T03:39:23;5.77;;;4.10;;
17052;SDS011;8643;48.824;11.422;2023-04-25T03:41:52;7.40;;;4.20;;
17052;SDS011;8643;48.824;11.422;2023-04-25T03:44:21;6.00;;;4.50;;
17052;SDS011;8643;48.824;11.422;2023-04-25T03:46:50;8.13;;;4.60;;
17052;SDS011;8643;48.824;11.422;2023-04-25T03:49:19;7.37;;;4.53;;
17052;SDS011;8643;48.824;11.422;2023-04-25T03:51:59;6.77;;;4.90;;
17052;SDS011;8643;48.824;11.422;2023-04-25T03:54:32;7.50;;;5.03;;
17052;SDS011;8643;48.824;11.422;2023-04-25T03:57:07;8.40;;;4.80;;
17052;SDS011;8643;48.824;11.422;2023-04-25T03:59:38;8.13;;;5.00;;
17052;SDS011;8643;48.824;11.422;2023-04-25T04:02:10;8.77;;;4.93;;
17052;SDS011;8643;48.824;11.422;2023-04-25T04:04:40;10.37;;;5.07;;
17052;SDS011;8643;48.824;11.422;2023-04-25T04:07:12;7.73;;;5.03;;
17052;SDS011;8643;48.824;11.422;2023-04-25T04:09:44;7.97;;;4.93;;
17052;SDS011;8643;48.824;11.422;2023-04-25T04:12:19;6.97;;;4.87;;
17052;SDS011;8643;48.824;11.422;2023-04-25T04:14:47;6.80;;;4.60;;
17052;SDS011;8643;48.824;11.422;2023-04-25T04:17:16;7.37;;;5.10;;
17052;SDS011;8643;48.824;11.422;2023-04-25T04:19:44;11.77;;;5.27;;
17052;SDS011;8643;48.824;11.422;2023-04-25T04:22:19;8.73;;;4.83;;
17052;SDS011;8643;48.824;11.422;2023-04-25T04:24:50;7.83;;;4.77;;
17052;SDS011;8643;48.824;11.422;2023-04-25T04:27:28;10.73;;;5.40;;
17052;SDS011;8643;48.824;11.422;2023-04-25T04:30:19;9.97;;;5.53;;
17052;SDS011;8643;48.824;11.422;2023-04-25T04:32:56;9.03;;;5.33;;
17052;SDS011;8643;48.824;11.422;2023-04-25T04:35:25;8.07;;;5.17;;
17052;SDS011;8643;48.824;11.422;2023-04-25T04:37:55;9.17;;;5.00;;
17052;SDS011;8643;48.824;11.422;2023-04-25T04:40:28;7.63;;;4.90;;
17052;SDS011;8643;48.824;11.422;2023-04-25T04:43:10;9.03;;;4.87;;
17052;SDS011;8643;48.824;11.422;2023-04-25T04:45:44;7.40;;;4.73;;
17052;SDS011;8643;48.824;11.422;2023-04-25T04:48:40;9.30;;;5.80;;
17052;SDS011;8643;48.824;11.422;2023-04-25T04:51:09;8.87;;;5.73;;
17052;SDS011;8643;48.824;11.422;2023-04-25T04:53:59;9.27;;;4.73;;
17052;SDS011;8643;48.824;11.422;2023-04-25T04:56:40;10.10;;;5.03;;
17052;SDS011;8643;48.824;11.422;2023-04-25T04:59:20;10.50;;;4.73;;
17052;SDS011;8643;48.824;11.422;2023-04-25T05:02:00;13.30;;;5.63;;
17052;SDS011;8643;48.824;11.422;2023-04-25T05:05:01;10.63;;;5.17;;
17052;SDS011;8643;48.824;11.422;2023-04-25T05:07:51;8.50;;;5.13;;
17052;SDS011;8643;48.824;11.422;2023-04-25T05:10:44;11.90;;;7.10;;
17052;SDS011;8643;48.824;11.422;2023-04-25T05:13:23;10.07;;;6.80;;
17052;SDS011;8643;48.824;11.422;2023-04-25T05:16:01;11.30;;;6.27;;
17052;SDS011;8643;48.824;11.422;2023-04-25T05:18:45;9.60;;;5.70;;
17052;SDS011;8643;48.824;11.422;2023-04-25T05:21:28;9.20;;;5.40;;
17052;SDS011;8643;48.824;11.422;2023-04-25T05:24:27;8.10;;;5.53;;
17052;SDS011;8643;48.824;11.422;2023-04-25T05:27:17;8.87;;;5.70;;
17052;SDS011;8643;48.824;11.422;2023-04-25T05:30:07;8.30;;;5.33;;
17052;SDS011;8643;48.824;11.422;2023-04-25T05:32:55;8.43;;;5.63;;
17052;SDS011;8643;48.824;11.422;2023-04-25T05:35:26;8.10;;;5.13;;
17052;SDS011;8643;48.824;11.422;2023-04-25T05:37:55;7.30;;;5.07;;
17052;SDS011;8643;48.824;11.422;2023-04-25T05:40:38;9.33;;;5.07;;
17052;SDS011;8643;48.824;11.422;2023-04-25T05:43:16;9.53;;;4.83;;
17052;SDS011;8643;48.824;11.422;2023-04-25T05:46:02;9.07;;;5.23;;
17052;SDS011;8643;48.824;11.422;2023-04-25T05:48:44;11.10;;;5.37;;
17052;SDS011;8643;48.824;11.422;2023-04-25T05:51:31;8.83;;;4.83;;
17052;SDS011;8643;48.824;11.422;2023-04-25T05:54:26;7.93;;;4.93;;
17052;SDS011;8643;48.824;11.422;2023-04-25T05:56:56;9.10;;;5.30;;
17052;SDS011;8643;48.824;11.422;2023-04-25T05:59:26;7.83;;;4.77;;
17052;SDS011;8643;48.824;11.422;2023-04-25T06:01:55;7.70;;;4.80;;
17052;SDS011;8643;48.824;11.422;2023-04-25T06:04:26;7.40;;;4.33;;
17052;SDS011;8643;48.824;11.422;2023-04-25T06:06:55;10.97;;;4.23;;
17052;SDS011;8643;48.824;11.422;2023-04-25T06:09:24;6.63;;;4.07;;
17052;SDS011;8643;48.824;11.422;2023-04-25T06:11:53;8.67;;;4.30;;
17052;SDS011;8643;48.824;11.422;2023-04-25T06:14:21;7.00;;;4.47;;
17052;SDS011;8643;48.824;11.422;2023-04-25T06:16:54;5.23;;;3.90;;
17052;SDS011;8643;48.824;11.422;2023-04-25T06:19:23;7.43;;;4.47;;
17052;SDS011;8643;48.824;11.422;2023-04-25T06:21:52;10.47;;;4.87;;
17052;SDS011;8643;48.824;11.422;2023-04-25T06:24:21;7.80;;;4.50;;
17052;SDS011;8643;48.824;11.422;2023-04-25T06:26:50;8.40;;;4.13;;
17052;SDS011;8643;48.824;11.422;2023-04-25T06:29:19;8.80;;;4.27;;
17052;SDS011;8643;48.824;11.422;2023-04-25T06:31:48;8.60;;;4.20;;
17052;SDS011;8643;48.824;11.422;2023-04-25T06:34:19;10.30;;;4.60;;
17052;SDS011;8643;48.824;11.422;2023-04-25T06:36:48;11.47;;;4.40;;
17052;SDS011;8643;48.824;11.422;2023-04-25T06:39:16;9.13;;;4.70;;
17052;SDS011;8643;48.824;11.422;2023-04-25T06:41:48;10.50;;;4.53;;
17052;SDS011;8643;48.824;11.422;2023-04-25T06:44:39;9.73;;;4.73;;
17052;SDS011;8643;48.824;11.422;2023-04-25T06:47:10;7.50;;;4.87;;
17052;SDS011;8643;48.824;11.422;2023-04-25T06:49:42;6.63;;;4.77;;
17052;SDS011;8643;48.824;11.422;2023-04-25T06:52:11;6.40;;;4.10;;
17052;SDS011;8643;48.824;11.422;2023-04-25T06:54:40;7.33;;;4.37;;
17052;SDS011;8643;48.824;11.422;2023-04-25T06:57:20;7.17;;;4.40;;
17052;SDS011;8643;48.824;11.422;2023-04-25T06:59:49;8.13;;;4.23;;
17052;SDS011;8643;48.824;11.422;2023-04-25T07:02:19;6.53;;;4.03;;
17052;SDS011;8643;48.824;11.422;2023-04-25T07:04:52;7.33;;;4.40;;
17052;SDS011;8643;48.824;11.422;2023-04-25T07:07:22;6.77;;;4.40;;
17052;SDS011;8643;48.824;11.422;2023-04-25T07:09:54;8.67;;;4.33;;
17052;SDS011;8643;48.824;11.422;2023-04-25T07:12:23;7.73;;;4.80;;
17052;SDS011;8643;48.824;11.422;2023-04-25T07:14:52;6.67;;;4.40;;
17052;SDS011;8643;48.824;11.422;2023-04-25T07:17:21;6.77;;;4.47;;
17052;SDS011;8643;48.824;11.422;2023-04-25T07:19:51;6.70;;;4.17;;
17052;SDS011;8643;48.824;11.422;2023-04-25T07:22:21;5.87;;;4.03;;
17052;SDS011;8643;48.824;11.422;2023-04-25T07:24:50;6.60;;;4.17;;
17052;SDS011;8643;48.824;11.422;2023-04-25T07:27:22;7.53;;;4.70;;
17052;SDS011;8643;48.824;11.422;2023-04-25T07:29:55;8.67;;;4.23;;
17052;SDS011;8643;48.824;11.422;2023-04-25T07:32:24;6.03;;;4.40;;
17052;SDS011;8643;48.824;11.422;2023-04-25T07:34:55;8.73;;;4.30;;
17052;SDS011;8643;48.824;11.422;2023-04-25T07:37:24;11.07;;;4.80;;
17052;SDS011;8643;48.824;11.422;2023-04-25T07:40:09;6.77;;;4.17;;
17052;SDS011;8643;48.824;11.422;2023-04-25T07:42:52;8.23;;;4.03;;
17052;SDS011;8643;48.824;11.422;2023-04-25T07:45:32;7.30;;;4.40;;
17052;SDS011;8643;48.824;11.422;2023-04-25T07:48:02;6.60;;;3.40;;
17052;SDS011;8643;48.824;11.422;2023-04-25T07:50:37;6.33;;;3.60;;
17052;SDS011;8643;48.824;11.422;2023-04-25T07:53:06;5.63;;;3.50;;
17052;SDS011;8643;48.824;11.422;2023-04-25T07:55:42;6.90;;;3.53;;
17052;SDS011;8643;48.824;11.422;2023-04-25T07:58:16;5.00;;;2.70;;
17052;SDS011;8643;48.824;11.422;2023-04-25T08:00:51;6.77;;;3.20;;
17052;SDS011;8643;48.824;11.422;2023-04-25T08:03:35;3.63;;;3.00;;
17052;SDS011;8643;48.824;11.422;2023-04-25T08:06:12;4.13;;;3.10;;
17052;SDS011;8643;48.824;11.422;2023-04-25T08:09:16;5.07;;;3.10;;
17052;SDS011;8643;48.824;11.422;2023-04-25T08:11:45;4.30;;;3.03;;
17052;SDS011;8643;48.824;11.422;2023-04-25T08:14:19;4.83;;;2.83;;
17052;SDS011;8643;48.824;11.422;2023-04-25T08:16:48;6.60;;;3.33;;
17052;SDS011;8643;48.824;11.422;2023-04-25T08:19:18;6.23;;;3.30;;
17052;SDS011;8643;48.824;11.422;2023-04-25T08:21:49;5.57;;;3.07;;
17052;SDS011;8643;48.824;11.422;2023-04-25T08:24:25;7.27;;;3.10;;
17052;SDS011;8643;48.824;11.422;2023-04-25T08:26:54;4.50;;;3.30;;
17052;SDS011;8643;48.824;11.422;2023-04-25T08:29:25;4.60;;;3.33;;
17052;SDS011;8643;48.824;11.422;2023-04-25T08:31:55;6.88;;;3.28;;
17052;SDS011;8643;48.824;11.422;2023-04-25T08:34:24;5.97;;;3.23;;
17052;SDS011;8643;48.824;11.422;2023-04-25T08:36:54;3.90;;;2.77;;
17052;SDS011;8643;48.824;11.422;2023-04-25T08:39:43;3.43;;;2.67;;
17052;SDS011;8643;48.824;11.422;2023-04-25T08:42:17;3.37;;;2.30;;
17052;SDS011;8643;48.824;11.422;2023-04-25T08:44:46;3.87;;;2.53;;
17052;SDS011;8643;48.824;11.422;2023-04-25T08:47:17;4.72;;;2.60;;
17052;SDS011;8643;48.824;11.422;2023-04-25T08:49:55;3.67;;;2.40;;
17052;SDS011;8643;48.824;11.422;2023-04-25T08:52:27;5.30;;;2.53;;
17052;SDS011;8643;48.824;11.422;2023-04-25T08:55:03;3.47;;;2.45;;
17052;SDS011;8643;48.824;11.422;2023-04-25T08:57:37;3.05;;;1.92;;
17052;SDS011;8643;48.824;11.422;2023-04-25T09:00:08;2.42;;;2.00;;
17052;SDS011;8643;48.824;11.422;2023-04-25T09:02:39;4.10;;;2.10;;
17052;SDS011;8643;48.824;11.422;2023-04-25T09:05:12;4.22;;;2.42;;
17052;SDS011;8643;48.824;11.422;2023-04-25T09:07:44;3.00;;;2.10;;
17052;SDS011;8643;48.824;11.422;2023-04-25T09:10:16;1.40;;;0.90;;
17052;SDS011;8643;48.824;11.422;2023-04-25T09:12:56;0.70;;;0.63;;
17052;SDS011;8643;48.824;11.422;2023-04-25T09:15:46;0.93;;;0.70;;
17052;SDS011;8643;48.824;11.422;2023-04-25T09:18:40;2.60;;;1.30;;
17052;SDS011;8643;48.824;11.422;2023-04-25T09:21:14;2.03;;;0.80;;
17052;SDS011;8643;48.824;11.422;2023-04-25T09:23:47;1.10;;;0.80;;
17052;SDS011;8643;48.824;11.422;2023-04-25T09:26:19;1.90;;;0.73;;
17052;SDS011;8643;48.824;11.422;2023-04-25T09:28:49;1.20;;;0.90;;
17052;SDS011;8643;48.824;11.422;2023-04-25T09:31:38;1.37;;;1.10;;
17052;SDS011;8643;48.824;11.422;2023-04-25T09:34:09;1.30;;;1.17;;
17052;SDS011;8643;48.824;11.422;2023-04-25T09:36:46;1.60;;;1.40;;
17052;SDS011;8643;48.824;11.422;2023-04-25T09:39:29;2.03;;;1.27;;
17052;SDS011;8643;48.824;11.422;2023-04-25T09:42:10;1.90;;;1.20;;
17052;SDS011;8643;48.824;11.422;2023-04-25T09:44:41;1.97;;;1.50;;
17052;SDS011;8643;48.824;11.422;2023-04-25T09:47:14;1.77;;;1.33;;
17052;SDS011;8643;48.824;11.422;2023-04-25T09:49:44;1.73;;;1.30;;
17052;SDS011;8643;48.824;11.422;2023-04-25T09:52:14;1.15;;;0.90;;
17052;SDS011;8643;48.824;11.422;2023-04-25T09:55:18;1.67;;;1.10;;
17052;SDS011;8643;48.824;11.422;2023-04-25T09:57:47;1.10;;;0.85;;
17052;SDS011;8643;48.824;11.422;2023-04-25T10:00:23;1.20;;;0.90;;
17052;SDS011;8643;48.824;11.422;2023-04-25T10:02:52;2.28;;;1.90;;
17052;SDS011;8643;48.824;11.422;2023-04-25T10:05:43;3.55;;;1.95;;
17052;SDS011;8643;48.824;11.422;2023-04-25T10:08:16;2.90;;;1.77;;
17052;SDS011;8643;48.824;11.422;2023-04-25T10:10:47;2.55;;;1.83;;
17052;SDS011;8643;48.824;11.422;2023-04-25T10:13:17;2.05;;;1.70;;
17052;SDS011;8643;48.824;11.422;2023-04-25T10:15:47;2.90;;;2.00;;
17052;SDS011;8643;48.824;11.422;2023-04-25T10:18:16;2.92;;;2.05;;
17052;SDS011;8643;48.824;11.422;2023-04-25T10:20:46;3.00;;;2.10;;
17052;SDS011;8643;48.824;11.422;2023-04-25T10:23:14;2.33;;;2.03;;
17052;SDS011;8643;48.824;11.422;2023-04-25T10:25:44;2.60;;;2.07;;
17052;SDS011;8643;48.824;11.422;2023-04-25T10:28:14;2.37;;;1.87;;
17052;SDS011;8643;48.824;11.422;2023-04-25T10:30:56;2.70;;;1.90;;
17052;SDS011;8643;48.824;11.422;2023-04-25T10:33:29;2.37;;;1.67;;
17052;SDS011;8643;48.824;11.422;2023-04-25T10:36:08;3.90;;;1.88;;
17052;SDS011;8643;48.824;11.422;2023-04-25T10:38:39;1.90;;;1.65;;
17052;SDS011;8643;48.824;11.422;2023-04-25T10:41:11;2.88;;;1.85;;
17052;SDS011;8643;48.824;11.422;2023-04-25T10:43:41;2.55;;;1.80;;
17052;SDS011;8643;48.824;11.422;2023-04-25T10:46:17;2.67;;;1.92;;
17052;SDS011;8643;48.824;11.422;2023-04-25T10:48:49;2.88;;;1.80;;
17052;SDS011;8643;48.824;11.422;2023-04-25T10:51:21;2.65;;;1.67;;
17052;SDS011;8643;48.824;11.422;2023-04-25T10:53:59;4.07;;;2.00;;
17052;SDS011;8643;48.824;11.422;2023-04-25T10:56:32;3.30;;;1.92;;
17052;SDS011;8643;48.824;11.422;2023-04-25T10:59:07;6.18;;;1.98;;
17052;SDS011;8643;48.824;11.422;2023-04-25T11:01:38;3.08;;;2.30;;
17052;SDS011;8643;48.824;11.422;2023-04-25T11:04:21;2.80;;;2.08;;
17052;SDS011;8643;48.824;11.422;2023-04-25T11:06:58;3.22;;;2.30;;
17052;SDS011;8643;48.824;11.422;2023-04-25T11:09:38;2.17;;;1.95;;
17052;SDS011;8643;48.824;11.422;2023-04-25T11:12:09;4.07;;;2.13;;
17052;SDS011;8643;48.824;11.422;2023-04-25T11:14:39;3.78;;;2.10;;
17052;SDS011;8643;48.824;11.422;2023-04-25T11:17:08;3.58;;;2.50;;
17052;SDS011;8643;48.824;11.422;2023-04-25T11:19:38;4.32;;;2.85;;
17052;SDS011;8643;48.824;11.422;2023-04-25T11:22:06;3.15;;;2.63;;
17052;SDS011;8643;48.824;11.422;2023-04-25T11:24:37;3.50;;;2.45;;
17052;SDS011;8643;48.824;11.422;2023-04-25T11:27:06;3.78;;;2.50;;
17052;SDS011;8643;48.824;11.422;2023-04-25T11:29:37;3.65;;;2.60;;
17052;SDS011;8643;48.824;11.422;2023-04-25T11:32:05;4.35;;;1.90;;
17052;SDS011;8643;48.824;11.422;2023-04-25T11:34:35;4.97;;;2.20;;
17052;SDS011;8643;48.824;11.422;2023-04-25T11:37:03;2.40;;;1.90;;
17052;SDS011;8643;48.824;11.422;2023-04-25T11:39:33;2.45;;;2.03;;
17052;SDS011;8643;48.824;11.422;2023-04-25T11:42:02;2.95;;;2.08;;
17052;SDS011;8643;48.824;11.422;2023-04-25T11:44:41;3.40;;;2.22;;
17052;SDS011;8643;48.824;11.422;2023-04-25T11:47:09;4.40;;;2.40;;
17052;SDS011;8643;48.824;11.422;2023-04-25T11:49:38;2.72;;;2.20;;
17052;SDS011;8643;48.824;11.422;2023-04-25T11:52:08;3.38;;;2.42;;
17052;SDS011;8643;48.824;11.422;2023-04-25T11:54:37;4.00;;;2.47;;
17052;SDS011;8643;48.824;11.422;2023-04-25T11:57:06;3.47;;;2.40;;
17052;SDS011;8643;48.824;11.422;2023-04-25T11:59:35;5.15;;;2.60;;
17052;SDS011;8643;48.824;11.422;2023-04-25T12:02:05;3.28;;;2.60;;
17052;SDS011;8643;48.824;11.422;2023-04-25T12:04:34;3.83;;;2.70;;
17052;SDS011;8643;48.824;11.422;2023-04-25T12:07:03;4.00;;;2.47;;
17052;SDS011;8643;48.824;11.422;2023-04-25T12:09:32;2.88;;;2.33;;
17052;SDS011;8643;48.824;11.422;2023-04-25T12:12:01;4.25;;;2.70;;
17052;SDS011;8643;48.824;11.422;2023-04-25T12:14:31;3.70;;;2.72;;
17052;SDS011;8643;48.824;11.422;2023-04-25T12:17:03;4.60;;;2.85;;
17052;SDS011;8643;48.824;11.422;2023-04-25T12:19:36;5.53;;;2.80;;
17052;SDS011;8643;48.824;11.422;2023-04-25T12:22:18;6.00;;;3.30;;
17052;SDS011;8643;48.824;11.422;2023-04-25T12:24:48;5.78;;;3.13;;
17052;SDS011;8643;48.824;11.422;2023-04-25T12:27:19;5.13;;;3.00;;
17052;SDS011;8643;48.824;11.422;2023-04-25T12:29:51;8.80;;;2.90;;
17052;SDS011;8643;48.824;11.422;2023-04-25T12:32:23;4.18;;;2.90;;
17052;SDS011;8643;48.824;11.422;2023-04-25T12:34:52;4.25;;;2.95;;
17052;SDS011;8643;48.824;11.422;2023-04-25T12:37:21;4.10;;;2.92;;
17052;SDS011;8643;48.824;11.422;2023-04-25T12:39:50;4.22;;;2.83;;
17052;SDS011;8643;48.824;11.422;2023-04-25T12:42:18;4.07;;;3.05;;
17052;SDS011;8643;48.824;11.422;2023-04-25T12:44:47;4.88;;;2.90;;
17052;SDS011;8643;48.824;11.422;2023-04-25T12:47:15;4.57;;;2.80;;
17052;SDS011;8643;48.824;11.422;2023-04-25T12:49:46;6.00;;;2.63;;
17052;SDS011;8643;48.824;11.422;2023-04-25T12:52:15;3.45;;;2.50;;
17052;SDS011;8643;48.824;11.422;2023-04-25T12:54:43;3.20;;;2.30;;
17052;SDS011;8643;48.824;11.422;2023-04-25T12:57:12;3.25;;;2.38;;
17052;SDS011;8643;48.824;11.422;2023-04-25T12:59:40;3.17;;;2.20;;
17052;SDS011;8643;48.824;11.422;2023-04-25T13:02:09;4.53;;;2.60;;
17052;SDS011;8643;48.824;11.422;2023-04-25T13:04:39;3.47;;;2.30;;
17052;SDS011;8643;48.824;11.422;2023-04-25T13:07:09;3.35;;;2.40;;
17052;SDS011;8643;48.824;11.422;2023-04-25T13:09:37;4.68;;;2.60;;
17052;SDS011;8643;48.824;11.422;2023-04-25T13:12:06;3.45;;;2.38;;
17052;SDS011;8643;48.824;11.422;2023-04-25T13:14:34;4.20;;;2.45;;
17052;SDS011;8643;48.824;11.422;2023-04-25T13:17:03;6.35;;;2.45;;
17052;SDS011;8643;48.824;11.422;2023-04-25T13:19:33;5.07;;;2.58;;
17052;SDS011;8643;48.824;11.422;2023-04-25T13:22:02;3.65;;;2.28;;
17052;SDS011;8643;48.824;11.422;2023-04-25T13:24:32;3.80;;;2.20;;
17052;SDS011;8643;48.824;11.422;2023-04-25T13:27:00;3.50;;;2.40;;
17052;SDS011;8643;48.824;11.422;2023-04-25T13:29:29;4.03;;;2.55;;
17052;SDS011;8643;48.824;11.422;2023-04-25T13:32:01;4.18;;;2.17;;
17052;SDS011;8643;48.824;11.422;2023-04-25T13:34:30;4.05;;;2.33;;
17052;SDS011;8643;48.824;11.422;2023-04-25T13:36:58;4.35;;;2.40;;
17052;SDS011;8643;48.824;11.422;2023-04-25T13:39:26;5.40;;;2.80;;
17052;SDS011;8643;48.824;11.422;2023-04-25T13:41:56;5.60;;;2.78;;
17052;SDS011;8643;48.824;11.422;2023-04-25T13:44:25;3.90;;;2.72;;
17052;SDS011;8643;48.824;11.422;2023-04-25T13:46:53;7.25;;;2.80;;
17052;SDS011;8643;48.824;11.422;2023-04-25T13:49:23;5.85;;;2.72;;
17052;SDS011;8643;48.824;11.422;2023-04-25T13:51:52;5.00;;;2.45;;
17052;SDS011;8643;48.824;11.422;2023-04-25T13:54:20;4.80;;;2.53;;
17052;SDS011;8643;48.824;11.422;2023-04-25T13:56:49;6.78;;;2.97;;
17052;SDS011;8643;48.824;11.422;2023-04-25T13:59:20;3.72;;;2.38;;
17052;SDS011;8643;48.824;11.422;2023-04-25T14:01:50;6.22;;;1.92;;
17052;SDS011;8643;48.824;11.422;2023-04-25T14:04:19;4.07;;;2.08;;
17052;SDS011;8643;48.824;11.422;2023-04-25T14:06:48;3.30;;;1.92;;
17052;SDS011;8643;48.824;11.422;2023-04-25T14:09:17;4.07;;;2.05;;
17052;SDS011;8643;48.824;11.422;2023-04-25T14:11:47;4.00;;;1.65;;
17052;SDS011;8643;48.824;11.422;2023-04-25T14:14:15;4.25;;;2.03;;
17052;SDS011;8643;48.824;11.422;2023-04-25T14:16:45;3.13;;;1.63;;
17052;SDS011;8643;48.824;11.422;2023-04-25T14:19:15;3.90;;;2.00;;
17052;SDS011;8643;48.824;11.422;2023-04-25T14:21:47;4.38;;;2.13;;
17052;SDS011;8643;48.824;11.422;2023-04-25T14:24:16;4.50;;;1.90;;
17052;SDS011;8643;48.824;11.422;2023-04-25T14:26:44;4.22;;;2.17;;
17052;SDS011;8643;48.824;11.422;2023-04-25T14:29:13;2.60;;;1.83;;
17052;SDS011;8643;48.824;11.422;2023-04-25T14:31:41;2.97;;;1.80;;
17052;SDS011;8643;48.824;11.422;2023-04-25T14:34:13;3.75;;;1.80;;
17052;SDS011;8643;48.824;11.422;2023-04-25T14:36:41;4.90;;;1.80;;
17052;SDS011;8643;48.824;11.422;2023-04-25T14:39:10;2.50;;;1.80;;
17052;SDS011;8643;48.824;11.422;2023-04-25T14:41:40;2.35;;;1.80;;
17052;SDS011;8643;48.824;11.422;2023-04-25T14:44:09;3.47;;;1.52;;
17052;SDS011;8643;48.824;11.422;2023-04-25T14:46:37;6.07;;;1.80;;
17052;SDS011;8643;48.824;11.422;2023-04-25T14:49:06;3.85;;;1.90;;
17052;SDS011;8643;48.824;11.422;2023-04-25T14:51:36;3.17;;;1.60;;
17052;SDS011;8643;48.824;11.422;2023-04-25T14:54:05;3.88;;;1.67;;
17052;SDS011;8643;48.824;11.422;2023-04-25T14:56:34;2.60;;;1.55;;
17052;SDS011;8643;48.824;11.422;2023-04-25T14:59:02;3.17;;;1.70;;
17052;SDS011;8643;48.824;11.422;2023-04-25T15:01:32;2.80;;;1.73;;
17052;SDS011;8643;48.824;11.422;2023-04-25T15:04:01;3.80;;;1.70;;
17052;SDS011;8643;48.824;11.422;2023-04-25T15:06:30;6.13;;;1.92;;
17052;SDS011;8643;48.824;11.422;2023-04-25T15:09:00;3.10;;;2.10;;
17052;SDS011;8643;48.824;11.422;2023-04-25T15:11:29;3.60;;;2.00;;
17052;SDS011;8643;48.824;11.422;2023-04-25T15:13:58;3.75;;;1.88;;
17052;SDS011;8643;48.824;11.422;2023-04-25T15:16:26;3.47;;;2.10;;
17052;SDS011;8643;48.824;11.422;2023-04-25T15:18:57;7.45;;;2.47;;